createdAt,value
2022-09-26T00:00:43.753Z,98110.66
2022-09-26T00:03:47.437Z,98114.50
2022-09-26T00:06:50.545Z,98107.56
2022-09-26T00:09:53.973Z,98113.03
2022-09-26T00:12:58.045Z,98110.75
2022-09-26T00:16:00.703Z,98105.19
2022-09-26T00:19:03.505Z,98101.97
2022-09-26T00:22:06.072Z,98097.19
2022-09-26T00:25:09.480Z,98101.88
2022-09-26T00:28:13.401Z,98100.13
2022-09-26T00:31:18.494Z,98103.53
2022-09-26T00:34:21.445Z,98094.41
2022-09-26T00:37:24.224Z,98108.75
2022-09-26T00:40:28.187Z,98093.78
2022-09-26T00:43:33.696Z,98092.03
2022-09-26T00:46:38.482Z,98088.41
2022-09-26T00:49:43.769Z,98094.09
2022-09-26T00:52:49.814Z,98081.31
2022-09-26T00:55:55.733Z,98086.44
2022-09-26T00:59:03.729Z,98087.56
2022-09-26T01:02:06.966Z,98091.97
2022-09-26T01:05:12.437Z,98095.91
2022-09-26T01:08:15.639Z,98084.22
2022-09-26T01:11:18.402Z,98078.84
2022-09-26T01:14:23.208Z,98072.84
2022-09-26T01:17:26.314Z,98069.97
2022-09-26T01:20:39.915Z,98070.56
2022-09-26T01:23:57.279Z,98066.13
2022-09-26T01:27:30.045Z,98079.63
2022-09-26T01:30:38.671Z,98068.75
2022-09-26T01:33:52.406Z,98080.56
2022-09-26T01:37:04.517Z,98072.53
2022-09-26T01:40:11.752Z,98076.06
2022-09-26T01:43:17.248Z,98072.03
2022-09-26T01:46:27.008Z,98080.97
2022-09-26T01:49:33.891Z,98076.78
2022-09-26T01:52:39.555Z,98075.19
2022-09-26T01:55:44.014Z,98080.59
2022-09-26T01:58:49.142Z,98076.09
2022-09-26T02:01:56.524Z,98082.81
2022-09-26T02:05:04.870Z,98082.28
2022-09-26T02:08:11.945Z,98074.72
2022-09-26T02:11:16.646Z,98074.63
2022-09-26T02:14:22.364Z,98076.50
2022-09-26T02:17:29.156Z,98068.59
2022-09-26T02:20:33.364Z,98070.31
2022-09-26T02:23:36.107Z,98058.50
2022-09-26T02:26:38.765Z,98059.13
2022-09-26T02:29:41.522Z,98059.34
2022-09-26T02:32:45.485Z,98057.28
2022-09-26T02:35:57.712Z,98052.75
2022-09-26T02:39:00.294Z,98052.88
2022-09-26T02:42:10.945Z,98049.69
2022-09-26T02:45:25.398Z,98047.50
2022-09-26T02:48:46.942Z,98045.88
2022-09-26T02:52:08.417Z,98038.00
2022-09-26T02:55:16.737Z,98046.97
2022-09-26T02:58:22.956Z,98039.25
2022-09-26T03:01:30.075Z,98038.25
2022-09-26T03:04:42.983Z,98030.72
2022-09-26T03:07:51.590Z,98033.25
2022-09-26T03:10:57.047Z,98025.50
2022-09-26T03:14:00.049Z,98011.88
2022-09-26T03:17:02.914Z,98008.69
2022-09-26T03:20:11.163Z,98008.22
2022-09-26T03:23:13.995Z,98006.94
2022-09-26T03:26:19.047Z,98009.22
2022-09-26T03:29:21.761Z,97995.44
2022-09-26T03:32:24.264Z,97999.25
2022-09-26T03:35:28.241Z,97998.44
2022-09-26T03:38:30.828Z,97988.63
2022-09-26T03:41:34.555Z,97986.75
2022-09-26T03:44:37.135Z,97985.47
2022-09-26T03:47:39.710Z,97987.38
2022-09-26T03:50:43.863Z,97980.19
2022-09-26T03:53:47.286Z,97989.06
2022-09-26T03:56:49.929Z,97975.09
2022-09-26T03:59:52.732Z,97972.69
2022-09-26T04:02:55.309Z,97968.91
2022-09-26T04:05:59.220Z,97969.56
2022-09-26T04:09:01.864Z,97955.59
2022-09-26T04:12:05.783Z,97963.78
2022-09-26T04:15:09.678Z,97959.25
2022-09-26T04:18:13.303Z,97951.06
2022-09-26T04:21:17.362Z,97942.28
2022-09-26T04:24:21.361Z,97945.28
2022-09-26T04:27:27.596Z,97939.13
2022-09-26T04:30:30.318Z,97937.50
2022-09-26T04:33:33.684Z,97930.47
2022-09-26T04:36:37.644Z,97922.75
2022-09-26T04:39:40.164Z,97919.75
2022-09-26T04:42:42.927Z,97916.13
2022-09-26T04:45:45.576Z,97912.56
2022-09-26T04:48:48.324Z,97922.22
2022-09-26T04:51:52.260Z,97917.13
2022-09-26T04:54:54.917Z,97914.28
2022-09-26T04:57:57.617Z,97918.47
2022-09-26T05:01:03.396Z,97901.38
2022-09-26T05:04:06.244Z,97902.41
2022-09-26T05:07:10.271Z,97905.44
2022-09-26T05:10:12.960Z,97901.63
2022-09-26T05:13:15.513Z,97907.09
2022-09-26T05:16:19.487Z,97901.19
2022-09-26T05:19:22.146Z,97911.91
2022-09-26T05:22:26.004Z,97913.38
2022-09-26T05:25:48.056Z,97906.00
2022-09-26T05:28:53.012Z,97911.44
2022-09-26T05:31:56.471Z,97915.72
2022-09-26T05:34:59.060Z,97901.47
2022-09-26T05:38:03.774Z,97892.84
2022-09-26T05:41:05.815Z,97899.00
2022-09-26T05:44:09.926Z,97901.09
2022-09-26T05:47:13.159Z,97899.47
2022-09-26T05:50:16.264Z,97894.97
2022-09-26T05:53:20.406Z,97893.84
2022-09-26T05:56:23.525Z,97889.28
2022-09-26T05:59:26.296Z,97891.59
2022-09-26T06:02:28.986Z,97888.00
2022-09-26T06:05:32.372Z,97887.72
2022-09-26T06:08:37.591Z,97891.13
2022-09-26T06:11:40.134Z,97886.16
2022-09-26T06:14:46.718Z,97881.75
2022-09-26T06:17:49.303Z,97880.06
2022-09-26T06:20:52.220Z,97888.59
2022-09-26T06:23:56.280Z,97871.03
2022-09-26T06:26:58.960Z,97879.72
2022-09-26T06:30:01.490Z,97885.34
2022-09-26T06:33:04.198Z,97876.19
2022-09-26T06:36:08.409Z,97875.00
2022-09-26T06:39:12.484Z,97865.19
2022-09-26T06:42:15.048Z,97855.06
2022-09-26T06:45:17.790Z,97858.63
2022-09-26T06:48:24.607Z,97857.56
2022-09-26T06:51:27.579Z,97857.66
2022-09-26T06:54:31.650Z,97853.13
2022-09-26T06:57:38.027Z,97855.59
2022-09-26T07:00:40.925Z,97861.63
2022-09-26T07:03:45.898Z,97852.63
2022-09-26T07:06:48.746Z,97852.53
2022-09-26T07:09:52.714Z,97846.38
2022-09-26T07:13:01.262Z,97847.66
2022-09-26T07:16:03.903Z,97845.06
2022-09-26T07:19:06.519Z,97850.91
2022-09-26T07:22:09.508Z,97857.78
2022-09-26T07:25:14.052Z,97856.25
2022-09-26T07:28:16.847Z,97858.06
2022-09-26T07:31:19.744Z,97840.34
2022-09-26T07:34:24.927Z,97839.59
2022-09-26T07:37:29.411Z,97844.53
2022-09-26T07:40:34.001Z,97843.41
2022-09-26T07:44:19.322Z,97832.63
2022-09-26T07:47:16.904Z,97835.16
2022-09-26T07:50:19.993Z,97839.59
2022-09-26T07:53:22.879Z,97831.50
2022-09-26T07:56:26.935Z,97832.81
2022-09-26T07:59:30.040Z,97832.00
2022-09-26T08:02:35.787Z,97824.41
2022-09-26T08:05:38.772Z,97821.94
2022-09-26T08:08:42.268Z,97825.00
2022-09-26T08:11:46.052Z,97814.44
2022-09-26T08:14:49.674Z,97810.72
2022-09-26T08:17:52.755Z,97816.38
2022-09-26T08:20:55.440Z,97806.00
2022-09-26T08:23:58.117Z,97802.81
2022-09-26T08:27:02.665Z,97801.13
2022-09-26T08:30:06.186Z,97796.75
2022-09-26T08:33:09.354Z,97794.97
2022-09-26T08:36:13.313Z,97797.91
2022-09-26T08:39:16.639Z,97804.13
2022-09-26T08:42:28.575Z,97795.94
2022-09-26T08:45:56.573Z,97797.53
2022-09-26T08:49:17.323Z,97792.22
2022-09-26T08:52:28.982Z,97789.03
2022-09-26T08:55:35.109Z,97786.47
2022-09-26T08:58:43.141Z,97794.13
2022-09-26T09:01:46.773Z,97783.44
2022-09-26T09:04:55.737Z,97789.31
2022-09-26T09:08:00.120Z,97783.00
2022-09-26T09:11:11.048Z,97791.19
2022-09-26T09:14:24.271Z,97786.72
2022-09-26T09:17:33.682Z,97779.88
2022-09-26T09:20:46.982Z,97780.56
2022-09-26T09:24:04.365Z,97775.84
2022-09-26T09:30:43.557Z,97761.03
2022-09-26T09:33:48.732Z,97762.13
2022-09-26T09:36:54.202Z,97756.53
2022-09-26T09:39:57.703Z,97752.53
2022-09-26T09:43:01.327Z,97753.50
2022-09-26T09:46:07.523Z,97746.97
2022-09-26T09:49:20.485Z,97741.47
2022-09-26T09:52:35.449Z,97739.91
2022-09-26T09:55:48.511Z,97730.59
2022-09-26T09:59:10.106Z,97726.66
2022-09-26T10:02:22.309Z,97729.00
2022-09-26T10:05:29.424Z,97724.50
2022-09-26T10:08:33.910Z,97716.72
2022-09-26T10:11:41.781Z,97722.50
2022-09-26T10:14:48.705Z,97721.56
2022-09-26T10:18:23.514Z,97710.50
2022-09-26T10:21:31.173Z,97706.03
2022-09-26T10:24:40.922Z,97710.34
2022-09-26T10:27:50.534Z,97702.94
2022-09-26T10:30:56.247Z,97695.44
2022-09-26T10:34:03.335Z,97690.97
2022-09-26T10:37:25.085Z,97684.28
2022-09-26T10:40:48.846Z,97679.75
2022-09-26T10:43:54.378Z,97687.72
2022-09-26T10:47:00.148Z,97684.97
2022-09-26T10:50:07.621Z,97678.59
2022-09-26T10:53:12.744Z,97673.50
2022-09-26T10:56:26.242Z,97678.25
2022-09-26T10:59:31.666Z,97671.53
2022-09-26T11:02:34.408Z,97666.03
2022-09-26T11:05:59.912Z,97662.09
2022-09-26T11:09:04.189Z,97657.31
2022-09-26T11:12:25.198Z,97660.09
2022-09-26T11:15:28.605Z,97661.63
2022-09-26T11:18:37.142Z,97651.31
2022-09-26T11:21:44.938Z,97635.91
2022-09-26T11:24:51.839Z,97647.38
2022-09-26T11:27:57.368Z,97624.38
2022-09-26T11:31:05.501Z,97625.66
2022-09-26T11:34:14.093Z,97611.00
2022-09-26T11:37:33.228Z,97608.38
2022-09-26T11:40:46.537Z,97596.06
2022-09-26T11:43:56.526Z,97602.88
2022-09-26T11:47:11.934Z,97598.50
2022-09-26T11:50:31.333Z,97604.03
2022-09-26T11:53:44.314Z,97596.16
2022-09-26T11:56:56.052Z,97592.53
2022-09-26T12:00:06.213Z,97598.13
2022-09-26T12:03:36.965Z,97587.19
2022-09-26T12:06:47.208Z,97589.06
2022-09-26T12:10:06.279Z,97613.34
2022-09-26T12:13:19.134Z,97605.53
2022-09-26T12:16:27.137Z,97591.41
2022-09-26T12:19:35.105Z,97582.56
2022-09-26T12:22:40.482Z,97579.16
2022-09-26T12:25:55.753Z,97553.97
2022-09-26T12:29:28.548Z,97542.28
2022-09-26T12:32:41.468Z,97529.63
2022-09-26T12:35:48.671Z,97518.09
2022-09-26T12:39:13.466Z,97512.31
2022-09-26T12:42:26.889Z,97511.09
2022-09-26T12:45:54.332Z,97516.75
2022-09-26T12:49:09.386Z,97511.09
2022-09-26T12:52:27.137Z,97511.28
2022-09-26T12:55:33.752Z,97515.16
2022-09-26T12:58:50.137Z,97510.13
2022-09-26T13:02:33.571Z,97506.16
2022-09-26T13:05:51.294Z,97515.66
2022-09-26T13:09:00.834Z,97507.38
2022-09-26T13:12:11.457Z,97502.25
2022-09-26T13:15:24.367Z,97514.09
2022-09-26T13:18:34.642Z,97516.72
2022-09-26T13:21:45.397Z,97513.59
2022-09-26T13:24:51.366Z,97497.47
2022-09-26T13:27:57.952Z,97493.97
2022-09-26T13:31:05.407Z,97490.41
2022-09-26T13:34:14.224Z,97477.78
2022-09-26T13:37:28.940Z,97475.34
2022-09-26T13:40:39.333Z,97477.59
2022-09-26T13:43:53.660Z,97472.50
2022-09-26T13:47:08.429Z,97466.91
2022-09-26T13:50:23.250Z,97458.56
2022-09-26T13:53:28.826Z,97463.53
2022-09-26T13:56:44.146Z,97456.38
2022-09-26T13:59:54.353Z,97464.09
2022-09-26T14:03:38.800Z,97457.09
2022-09-26T14:07:26.566Z,97459.53
2022-09-26T14:10:36.322Z,97447.06
2022-09-26T14:13:39.012Z,97453.28
2022-09-26T14:16:41.552Z,97445.94
2022-09-26T14:19:45.731Z,97434.94
2022-09-26T14:22:55.003Z,97436.91
2022-09-26T14:26:06.282Z,97423.25
2022-09-26T14:29:26.049Z,97419.78
2022-09-26T14:32:31.288Z,97423.22
2022-09-26T14:35:35.744Z,97430.63
2022-09-26T14:38:41.130Z,97418.44
2022-09-26T14:41:43.723Z,97412.13
2022-09-26T14:44:56.735Z,97424.13
2022-09-26T14:48:07.837Z,97415.09
2022-09-26T14:51:26.833Z,97404.28
2022-09-26T14:54:37.413Z,97403.22
2022-09-26T14:57:40.041Z,97407.56
2022-09-26T15:00:45.327Z,97404.06
2022-09-26T15:03:57.082Z,97402.91
2022-09-26T15:07:04.846Z,97404.41
2022-09-26T15:10:21.811Z,97404.41
2022-09-26T15:13:30.014Z,97395.75
2022-09-26T15:16:37.464Z,97392.66
2022-09-26T15:19:45.838Z,97398.91
2022-09-26T15:22:50.154Z,97403.59
2022-09-26T15:25:56.419Z,97383.56
2022-09-26T15:28:59.598Z,97378.09
2022-09-26T15:32:02.855Z,97381.59
2022-09-26T15:35:06.238Z,97374.09
2022-09-26T15:38:10.784Z,97366.97
2022-09-26T15:41:17.219Z,97367.25
2022-09-26T15:44:22.061Z,97369.16
2022-09-26T15:47:41.084Z,97361.69
2022-09-26T15:50:46.092Z,97361.75
2022-09-26T15:53:51.044Z,97354.66
2022-09-26T15:56:56.884Z,97358.19
2022-09-26T16:00:01.124Z,97350.66
2022-09-26T16:03:27.706Z,97351.25
2022-09-26T16:06:32.032Z,97349.13
2022-09-26T16:09:35.866Z,97341.66
2022-09-26T16:12:41.847Z,97341.38
2022-09-26T16:15:44.863Z,97333.13
2022-09-26T16:18:53.994Z,97324.03
2022-09-26T16:21:56.857Z,97330.63
2022-09-26T16:25:29.552Z,97330.69
2022-09-26T16:28:45.122Z,97321.94
2022-09-26T16:31:48.201Z,97319.03
2022-09-26T16:34:50.962Z,97320.88
2022-09-26T16:37:59.458Z,97312.66
2022-09-26T16:41:07.911Z,97307.63
2022-09-26T16:44:26.179Z,97302.16
2022-09-26T16:47:35.238Z,97301.94
2022-09-26T16:50:38.293Z,97294.16
2022-09-26T16:53:41.068Z,97301.16
2022-09-26T16:56:44.722Z,97294.41
2022-09-26T16:59:48.830Z,97290.47
2022-09-26T17:02:50.718Z,97281.03
2022-09-26T17:05:55.597Z,97280.66
2022-09-26T17:08:58.933Z,97277.03
2022-09-26T17:12:04.440Z,97272.34
2022-09-26T17:15:14.272Z,97273.41
2022-09-26T17:18:19.644Z,97272.19
2022-09-26T17:21:22.224Z,97269.75
2022-09-26T17:24:26.415Z,97256.00
2022-09-26T17:27:35.989Z,97263.44
2022-09-26T17:30:41.171Z,97263.84
2022-09-26T17:33:44.531Z,97257.22
2022-09-26T17:36:48.838Z,97254.50
2022-09-26T17:39:51.625Z,97248.16
2022-09-26T17:42:56.493Z,97244.22
2022-09-26T17:46:01.674Z,97237.56
2022-09-26T17:49:06.156Z,97241.88
2022-09-26T17:52:20.203Z,97229.66
2022-09-26T17:55:24.612Z,97226.44
2022-09-26T17:58:27.320Z,97219.75
2022-09-26T18:01:34.149Z,97212.69
2022-09-26T18:04:37.169Z,97210.66
2022-09-26T18:07:41.678Z,97212.22
2022-09-26T18:10:50.243Z,97208.25
2022-09-26T18:13:54.723Z,97194.50
2022-09-26T18:16:58.633Z,97197.19
2022-09-26T18:20:01.951Z,97197.97
2022-09-26T18:23:06.698Z,97187.03
2022-09-26T18:26:13.655Z,97182.31
2022-09-26T18:29:19.486Z,97183.09
2022-09-26T18:32:25.996Z,97181.47
2022-09-26T18:35:29.183Z,97177.53
2022-09-26T18:38:31.874Z,97175.53
2022-09-26T18:41:35.260Z,97165.31
2022-09-26T18:44:37.986Z,97164.56
2022-09-26T18:47:45.346Z,97154.75
2022-09-26T18:50:51.080Z,97157.03
2022-09-26T18:53:55.455Z,97153.88
2022-09-26T18:57:15.917Z,97149.94
2022-09-26T19:00:20.278Z,97142.09
2022-09-26T19:03:25.023Z,97138.16
2022-09-26T19:06:30.794Z,97142.41
2022-09-26T19:09:35.218Z,97137.69
2022-09-26T19:12:39.535Z,97148.28
2022-09-26T19:15:42.863Z,97140.47
2022-09-26T19:18:47.091Z,97138.16
2022-09-26T19:21:51.422Z,97133.47
2022-09-26T19:24:56.137Z,97134.63
2022-09-26T19:27:58.856Z,97130.00
2022-09-26T19:31:02.172Z,97130.41
2022-09-26T19:34:06.298Z,97130.00
2022-09-26T19:37:10.064Z,97131.97
2022-09-26T19:40:14.302Z,97124.13
2022-09-26T19:43:17.023Z,97125.75
2022-09-26T19:46:25.920Z,97121.84
2022-09-26T19:49:32.038Z,97120.44
2022-09-26T19:52:35.252Z,97125.50
2022-09-26T19:55:39.328Z,97118.50
2022-09-26T19:58:42.963Z,97122.75
2022-09-26T20:01:47.448Z,97120.41
2022-09-26T20:04:51.817Z,97109.50
2022-09-26T20:07:54.488Z,97107.19
2022-09-26T20:10:57.806Z,97104.13
2022-09-26T20:14:18.102Z,97096.28
2022-09-26T20:17:24.852Z,97091.25
2022-09-26T20:20:28.881Z,97091.66
2022-09-26T20:23:31.797Z,97085.03
2022-09-26T20:26:34.683Z,97083.09
2022-09-26T20:29:54.375Z,97087.81
2022-09-26T20:32:57.000Z,97093.50
2022-09-26T20:36:03.902Z,97086.66
2022-09-26T20:39:08.156Z,97077.19
2022-09-26T20:42:17.374Z,97082.25
2022-09-26T20:45:23.597Z,97060.38
2022-09-26T20:48:27.815Z,97072.28
2022-09-26T20:51:34.436Z,97077.56
2022-09-26T20:54:37.055Z,97070.28
2022-09-26T20:57:40.251Z,97056.38
2022-09-26T21:00:43.768Z,97057.97
2022-09-26T21:03:48.534Z,97057.00
2022-09-26T21:06:52.767Z,97048.13
2022-09-26T21:09:55.347Z,97040.53
2022-09-26T21:12:58.971Z,97032.63
2022-09-26T21:16:01.581Z,97032.31
2022-09-26T21:19:05.365Z,97015.56
2022-09-26T21:22:10.883Z,97016.81
2022-09-26T21:25:18.028Z,97025.03
2022-09-26T21:28:26.310Z,97019.16
2022-09-26T21:31:30.863Z,97018.75
2022-09-26T21:34:34.639Z,97007.94
2022-09-26T21:37:38.833Z,97008.75
2022-09-26T21:40:43.001Z,97009.75
2022-09-26T21:43:50.015Z,97012.34
2022-09-26T21:46:52.732Z,97010.91
2022-09-26T21:49:55.449Z,97022.13
2022-09-26T21:53:05.186Z,97010.38
2022-09-26T21:56:12.312Z,97005.25
2022-09-26T21:59:15.273Z,97006.19
2022-09-26T22:02:18.001Z,97006.38
2022-09-26T22:05:22.197Z,97000.44
2022-09-26T22:08:26.125Z,97002.22
2022-09-26T22:11:29.524Z,96999.09
2022-09-26T22:14:32.139Z,97001.66
2022-09-26T22:17:34.744Z,96994.97
2022-09-26T22:20:37.379Z,96993.41
2022-09-26T22:23:41.351Z,96988.59
2022-09-26T22:26:45.106Z,96986.22
2022-09-26T22:29:48.510Z,96975.59
2022-09-26T22:32:51.121Z,96972.78
2022-09-26T22:35:53.892Z,96969.63
2022-09-26T22:38:58.081Z,96964.53
2022-09-26T22:42:00.641Z,96959.00
2022-09-26T22:45:03.364Z,96961.31
2022-09-26T22:48:06.033Z,96955.06
2022-09-26T22:51:09.256Z,96957.06
2022-09-26T22:54:13.220Z,96947.06
2022-09-26T22:57:16.632Z,96950.59
2022-09-26T23:00:19.625Z,96939.91
2022-09-26T23:03:22.403Z,96926.78
2022-09-26T23:06:25.740Z,96921.69
2022-09-26T23:09:29.727Z,96916.56
2022-09-26T23:12:32.524Z,96903.94
2022-09-26T23:15:35.195Z,96904.31
2022-09-26T23:18:39.241Z,96893.69
2022-09-26T23:21:42.327Z,96887.03
2022-09-26T23:24:46.484Z,96880.75
2022-09-26T23:27:50.286Z,96873.94
2022-09-26T23:30:53.023Z,96857.03
2022-09-26T23:33:56.113Z,96862.38
2022-09-26T23:36:58.694Z,96844.91
2022-09-26T23:40:03.554Z,96847.69
2022-09-26T23:43:06.440Z,96843.81
2022-09-26T23:46:09.624Z,96842.88
2022-09-26T23:49:12.283Z,96838.28
2022-09-26T23:52:14.927Z,96828.44
2022-09-26T23:55:18.994Z,96824.66
2022-09-26T23:58:21.689Z,96824.00
